BVR114 LIMC-EDDB
Flight info
| Callsign | BVR114 |
|---|---|
| Flight time | 1h 19m |
| Altitude | 34000 |
| Route | SRN9G.PEP2Q PEPAG DCT SOTOV DCT ALUTU DCT GAVLI T203 ATGUP ATGUP1R |
| Aircraft | B738/M-SDE2E3FGHIRWXY/LB1 |
Departure
| Time | 2026-05-06 08:13 |
|---|---|
| Airport | Milan Malpensa International Airport (LIMC) |
Arrival
| Time | 2026-05-06 09:32 |
|---|---|
| Airport | Berlin Brandenburg Airport (EDDB) |
| Time | Latitude | Longitude | Altitude | Speed | Heading |
|---|---|---|---|---|---|
| 2026-05-06 07:43 | 45.62853 | 8.71521 | 750 ft | 0 kts | 169° |
| 2026-05-06 07:57 | 45.62865 | 8.71518 | 749 ft | 4 kts | 169° |
| 2026-05-06 07:57 | 45.62891 | 8.71511 | 747 ft | 4 kts | 169° |
| 2026-05-06 07:57 | 45.62913 | 8.71504 | 749 ft | 4 kts | 144° |
| 2026-05-06 07:58 | 45.62927 | 8.71476 | 751 ft | 4 kts | 97° |
| 2026-05-06 07:58 | 45.62927 | 8.71452 | 750 ft | 1 kts | 84° |
| 2026-05-06 07:58 | 45.62927 | 8.71449 | 750 ft | 0 kts | 84° |
| 2026-05-06 08:03 | 45.62929 | 8.71477 | 750 ft | 4 kts | 84° |
| 2026-05-06 08:04 | 45.62935 | 8.71525 | 751 ft | 5 kts | 80° |
| 2026-05-06 08:04 | 45.62939 | 8.71560 | 751 ft | 5 kts | 79° |
| 2026-05-06 08:04 | 45.62946 | 8.71611 | 747 ft | 5 kts | 79° |
| 2026-05-06 08:04 | 45.62952 | 8.71662 | 751 ft | 5 kts | 80° |
| 2026-05-06 08:05 | 45.62948 | 8.71713 | 751 ft | 6 kts | 113° |
| 2026-05-06 08:05 | 45.62911 | 8.71756 | 750 ft | 8 kts | 163° |
| 2026-05-06 08:05 | 45.62848 | 8.71775 | 751 ft | 10 kts | 169° |
| 2026-05-06 08:05 | 45.62770 | 8.71798 | 750 ft | 13 kts | 168° |
| 2026-05-06 08:06 | 45.62675 | 8.71823 | 751 ft | 15 kts | 169° |
| 2026-05-06 08:06 | 45.62560 | 8.71855 | 748 ft | 18 kts | 168° |
| 2026-05-06 08:06 | 45.62425 | 8.71892 | 751 ft | 21 kts | 169° |
| 2026-05-06 08:06 | 45.62269 | 8.71935 | 748 ft | 24 kts | 169° |
| 2026-05-06 08:07 | 45.62091 | 8.71984 | 750 ft | 27 kts | 169° |
| 2026-05-06 08:07 | 45.61895 | 8.72039 | 752 ft | 30 kts | 169° |
| 2026-05-06 08:07 | 45.61683 | 8.72097 | 751 ft | 32 kts | 169° |
| 2026-05-06 08:07 | 45.61464 | 8.72160 | 751 ft | 32 kts | 169° |
| 2026-05-06 08:08 | 45.61242 | 8.72219 | 752 ft | 32 kts | 169° |
| 2026-05-06 08:08 | 45.61023 | 8.72279 | 748 ft | 32 kts | 169° |
| 2026-05-06 08:08 | 45.60799 | 8.72342 | 749 ft | 33 kts | 169° |
| 2026-05-06 08:08 | 45.60638 | 8.72538 | 751 ft | 32 kts | 109° |
| 2026-05-06 08:09 | 45.60611 | 8.72843 | 753 ft | 31 kts | 96° |
| 2026-05-06 08:09 | 45.60595 | 8.73146 | 753 ft | 30 kts | 82° |
| 2026-05-06 08:09 | 45.60735 | 8.73328 | 752 ft | 28 kts | 22° |
| 2026-05-06 08:09 | 45.60918 | 8.73399 | 751 ft | 26 kts | 356° |
| 2026-05-06 08:10 | 45.61091 | 8.73348 | 751 ft | 25 kts | 348° |
| 2026-05-06 08:10 | 45.61255 | 8.73309 | 750 ft | 23 kts | 350° |
| 2026-05-06 08:10 | 45.61409 | 8.73266 | 751 ft | 22 kts | 347° |
| 2026-05-06 08:10 | 45.61561 | 8.73226 | 750 ft | 22 kts | 2° |
| 2026-05-06 08:11 | 45.61627 | 8.73398 | 752 ft | 21 kts | 93° |
| 2026-05-06 08:11 | 45.61585 | 8.73591 | 750 ft | 21 kts | 87° |
| 2026-05-06 08:11 | 45.61685 | 8.73718 | 744 ft | 23 kts | 351° |
| 2026-05-06 08:11 | 45.61717 | 8.73710 | 743 ft | 0 kts | 349° |
| 2026-05-06 08:12 | 45.61730 | 8.73706 | 744 ft | 8 kts | 349° |
| 2026-05-06 08:12 | 45.61848 | 8.73674 | 743 ft | 38 kts | 349° |
| 2026-05-06 08:12 | 45.62348 | 8.73536 | 747 ft | 105 kts | 349° |
| 2026-05-06 08:12 | 45.63267 | 8.73286 | 745 ft | 161 kts | 351° |
| 2026-05-06 08:13 | 45.64426 | 8.72945 | 1182 ft | 175 kts | 351° |
| 2026-05-06 08:13 | 45.65685 | 8.72722 | 1722 ft | 188 kts | 13° |
| 2026-05-06 08:13 | 45.66787 | 8.73619 | 2301 ft | 190 kts | 56° |
| 2026-05-06 08:13 | 45.67567 | 8.75192 | 2785 ft | 197 kts | 58° |
| 2026-05-06 08:14 | 45.68432 | 8.76750 | 3309 ft | 203 kts | 57° |
| 2026-05-06 08:14 | 45.69330 | 8.78341 | 3816 ft | 211 kts | 58° |
| 2026-05-06 08:14 | 45.69865 | 8.80299 | 4152 ft | 216 kts | 97° |
| 2026-05-06 08:14 | 45.69455 | 8.82344 | 4735 ft | 217 kts | 115° |
| 2026-05-06 08:15 | 45.68927 | 8.84401 | 5330 ft | 228 kts | 105° |
| 2026-05-06 08:15 | 45.69102 | 8.86819 | 5528 ft | 264 kts | 68° |
| 2026-05-06 08:15 | 45.70271 | 8.88922 | 6098 ft | 280 kts | 43° |
| 2026-05-06 08:15 | 45.71957 | 8.90380 | 6778 ft | 290 kts | 27° |
| 2026-05-06 08:16 | 45.73827 | 8.91567 | 7602 ft | 294 kts | 25° |
| 2026-05-06 08:16 | 45.75715 | 8.92706 | 8413 ft | 299 kts | 24° |
| 2026-05-06 08:16 | 45.77639 | 8.93865 | 9152 ft | 304 kts | 24° |
| 2026-05-06 08:16 | 45.79600 | 8.95070 | 9881 ft | 307 kts | 25° |
| 2026-05-06 08:17 | 45.81610 | 8.96326 | 10248 ft | 322 kts | 25° |
| 2026-05-06 08:17 | 45.83706 | 8.97654 | 10656 ft | 336 kts | 25° |
| 2026-05-06 08:17 | 45.85853 | 8.99025 | 11296 ft | 342 kts | 25° |
| 2026-05-06 08:17 | 45.88047 | 9.00432 | 12047 ft | 345 kts | 25° |
| 2026-05-06 08:18 | 45.90241 | 9.01841 | 12728 ft | 351 kts | 25° |
| 2026-05-06 08:18 | 45.92462 | 9.03274 | 13489 ft | 354 kts | 25° |
| 2026-05-06 08:18 | 45.94735 | 9.04738 | 14135 ft | 360 kts | 25° |
| 2026-05-06 08:18 | 45.96991 | 9.06380 | 14761 ft | 363 kts | 35° |
| 2026-05-06 08:19 | 45.98959 | 9.08645 | 15388 ft | 365 kts | 48° |
| 2026-05-06 08:19 | 46.00569 | 9.11479 | 16061 ft | 364 kts | 59° |
| 2026-05-06 08:19 | 46.01975 | 9.14460 | 16605 ft | 369 kts | 61° |
| 2026-05-06 08:19 | 46.03388 | 9.17562 | 17213 ft | 369 kts | 62° |
| 2026-05-06 08:20 | 46.04782 | 9.20648 | 17885 ft | 374 kts | 62° |
| 2026-05-06 08:20 | 46.06222 | 9.23825 | 18473 ft | 380 kts | 62° |
| 2026-05-06 08:20 | 46.07663 | 9.26990 | 19055 ft | 383 kts | 62° |
| 2026-05-06 08:20 | 46.09143 | 9.30224 | 19637 ft | 386 kts | 61° |
| 2026-05-06 08:21 | 46.10622 | 9.33444 | 20178 ft | 390 kts | 61° |
| 2026-05-06 08:21 | 46.12126 | 9.36714 | 20710 ft | 392 kts | 61° |
| 2026-05-06 08:21 | 46.13649 | 9.40020 | 21315 ft | 396 kts | 61° |
| 2026-05-06 08:21 | 46.15173 | 9.43336 | 21911 ft | 402 kts | 61° |
| 2026-05-06 08:22 | 46.16739 | 9.46745 | 22524 ft | 407 kts | 61° |
| 2026-05-06 08:22 | 46.18297 | 9.50133 | 23291 ft | 407 kts | 62° |
| 2026-05-06 08:22 | 46.19856 | 9.53518 | 23795 ft | 408 kts | 62° |
| 2026-05-06 08:22 | 46.21453 | 9.57009 | 24103 ft | 415 kts | 62° |
| 2026-05-06 08:23 | 46.23036 | 9.60477 | 24441 ft | 420 kts | 61° |
| 2026-05-06 08:23 | 46.24662 | 9.64042 | 24741 ft | 427 kts | 60° |
| 2026-05-06 08:23 | 46.26301 | 9.67637 | 25003 ft | 435 kts | 60° |
| 2026-05-06 08:23 | 46.27985 | 9.71327 | 25516 ft | 437 kts | 60° |
| 2026-05-06 08:24 | 46.29657 | 9.74994 | 25963 ft | 440 kts | 60° |
| 2026-05-06 08:24 | 46.31339 | 9.78692 | 26269 ft | 446 kts | 60° |
| 2026-05-06 08:24 | 46.33062 | 9.82488 | 26665 ft | 450 kts | 60° |
| 2026-05-06 08:24 | 46.34769 | 9.86253 | 27127 ft | 452 kts | 60° |
| 2026-05-06 08:25 | 46.36515 | 9.90111 | 27489 ft | 457 kts | 60° |
| 2026-05-06 08:25 | 46.38255 | 9.93957 | 27826 ft | 461 kts | 60° |
| 2026-05-06 08:25 | 46.40027 | 9.97884 | 28156 ft | 465 kts | 60° |
| 2026-05-06 08:25 | 46.41799 | 10.01813 | 28420 ft | 469 kts | 60° |
| 2026-05-06 08:26 | 46.43573 | 10.05754 | 28834 ft | 471 kts | 60° |
| 2026-05-06 08:26 | 46.45364 | 10.09735 | 29148 ft | 475 kts | 60° |
| 2026-05-06 08:26 | 46.47177 | 10.13773 | 29503 ft | 476 kts | 60° |
| 2026-05-06 08:26 | 46.48995 | 10.17830 | 29858 ft | 479 kts | 60° |
| 2026-05-06 08:27 | 46.50809 | 10.21883 | 30137 ft | 482 kts | 60° |
| 2026-05-06 08:27 | 46.52632 | 10.25962 | 30432 ft | 484 kts | 60° |
| 2026-05-06 08:27 | 46.54460 | 10.30058 | 30774 ft | 486 kts | 60° |
| 2026-05-06 08:27 | 46.56311 | 10.34211 | 31052 ft | 488 kts | 60° |
| 2026-05-06 08:28 | 46.58141 | 10.38323 | 31306 ft | 491 kts | 60° |
| 2026-05-06 08:28 | 46.59999 | 10.42506 | 31532 ft | 493 kts | 60° |
| 2026-05-06 08:28 | 46.61852 | 10.46683 | 31781 ft | 495 kts | 60° |
| 2026-05-06 08:28 | 46.63735 | 10.50934 | 32046 ft | 497 kts | 60° |
| 2026-05-06 08:29 | 46.65617 | 10.55191 | 32312 ft | 500 kts | 59° |
| 2026-05-06 08:29 | 46.67480 | 10.59409 | 32528 ft | 503 kts | 59° |
| 2026-05-06 08:29 | 46.69387 | 10.63733 | 32809 ft | 504 kts | 59° |
| 2026-05-06 08:29 | 46.71266 | 10.67998 | 33114 ft | 504 kts | 59° |
| 2026-05-06 08:30 | 46.73175 | 10.72340 | 33385 ft | 505 kts | 59° |
| 2026-05-06 08:30 | 46.75056 | 10.76625 | 33600 ft | 507 kts | 59° |
| 2026-05-06 08:30 | 46.76962 | 10.80976 | 33835 ft | 510 kts | 59° |
| 2026-05-06 08:30 | 46.78878 | 10.85355 | 33892 ft | 514 kts | 59° |
| 2026-05-06 08:31 | 46.82714 | 10.94145 | 33889 ft | 515 kts | 59° |
| 2026-05-06 08:31 | 46.86533 | 11.02923 | 33895 ft | 507 kts | 59° |
| 2026-05-06 08:32 | 46.90299 | 11.11603 | 33862 ft | 503 kts | 59° |
| 2026-05-06 08:32 | 46.94605 | 11.19569 | 33886 ft | 500 kts | 39° |
| 2026-05-06 08:33 | 46.97380 | 11.22551 | 33894 ft | 497 kts | 28° |
| 2026-05-06 08:33 | 47.00461 | 11.24764 | 33884 ft | 495 kts | 17° |
| 2026-05-06 08:33 | 47.06961 | 11.28297 | 33880 ft | 500 kts | 16° |
| 2026-05-06 08:34 | 47.16741 | 11.33613 | 33793 ft | 501 kts | 17° |
| 2026-05-06 08:35 | 47.23279 | 11.37269 | 33803 ft | 502 kts | 17° |
| 2026-05-06 08:35 | 47.29802 | 11.40950 | 33817 ft | 503 kts | 18° |
| 2026-05-06 08:36 | 47.36360 | 11.44665 | 33805 ft | 504 kts | 18° |
| 2026-05-06 08:36 | 47.42870 | 11.48358 | 33779 ft | 504 kts | 18° |
| 2026-05-06 08:37 | 47.49397 | 11.52077 | 33789 ft | 503 kts | 18° |
| 2026-05-06 08:37 | 47.55944 | 11.55800 | 33823 ft | 503 kts | 18° |
| 2026-05-06 08:38 | 47.62494 | 11.59541 | 33795 ft | 503 kts | 18° |
| 2026-05-06 08:38 | 47.68982 | 11.63259 | 33803 ft | 502 kts | 18° |
| 2026-05-06 08:39 | 47.75506 | 11.67007 | 33802 ft | 501 kts | 18° |
| 2026-05-06 08:39 | 47.81977 | 11.70734 | 33810 ft | 500 kts | 18° |
| 2026-05-06 08:40 | 47.88437 | 11.74465 | 33820 ft | 499 kts | 18° |
| 2026-05-06 08:40 | 47.94894 | 11.78205 | 33808 ft | 498 kts | 18° |
| 2026-05-06 08:41 | 48.01318 | 11.81936 | 33810 ft | 497 kts | 18° |
| 2026-05-06 08:41 | 48.07766 | 11.85690 | 33826 ft | 496 kts | 18° |
| 2026-05-06 08:42 | 48.14185 | 11.89438 | 33818 ft | 496 kts | 18° |
| 2026-05-06 08:42 | 48.20622 | 11.93206 | 33831 ft | 495 kts | 18° |
| 2026-05-06 08:43 | 48.27038 | 11.96972 | 33829 ft | 495 kts | 18° |
| 2026-05-06 08:43 | 48.33465 | 12.00755 | 33829 ft | 496 kts | 18° |
| 2026-05-06 08:44 | 48.39899 | 12.04553 | 33826 ft | 496 kts | 18° |
| 2026-05-06 08:44 | 48.46329 | 12.08358 | 33826 ft | 497 kts | 18° |
| 2026-05-06 08:45 | 48.52791 | 12.12033 | 33823 ft | 496 kts | 15° |
| 2026-05-06 08:45 | 48.59326 | 12.15252 | 33825 ft | 495 kts | 14° |
| 2026-05-06 08:46 | 48.65878 | 12.18398 | 33852 ft | 496 kts | 14° |
| 2026-05-06 08:46 | 48.72450 | 12.21617 | 33842 ft | 496 kts | 14° |
| 2026-05-06 08:47 | 48.79011 | 12.24881 | 33833 ft | 496 kts | 14° |
| 2026-05-06 08:47 | 48.85555 | 12.28158 | 33823 ft | 496 kts | 14° |
| 2026-05-06 08:48 | 48.92133 | 12.31460 | 33836 ft | 495 kts | 14° |
| 2026-05-06 08:48 | 48.98631 | 12.34728 | 33831 ft | 494 kts | 14° |
| 2026-05-06 08:49 | 49.05143 | 12.38010 | 33829 ft | 493 kts | 14° |
| 2026-05-06 08:49 | 49.11650 | 12.41301 | 33835 ft | 492 kts | 14° |
| 2026-05-06 08:50 | 49.18160 | 12.44600 | 33823 ft | 492 kts | 14° |
| 2026-05-06 08:50 | 49.24621 | 12.47884 | 33822 ft | 490 kts | 14° |
| 2026-05-06 08:51 | 49.31090 | 12.51181 | 33839 ft | 490 kts | 14° |
| 2026-05-06 08:51 | 49.37555 | 12.54485 | 33830 ft | 490 kts | 14° |
| 2026-05-06 08:52 | 49.44041 | 12.57809 | 33819 ft | 490 kts | 14° |
| 2026-05-06 08:52 | 49.50502 | 12.61130 | 33840 ft | 491 kts | 14° |
| 2026-05-06 08:53 | 49.57005 | 12.64481 | 33820 ft | 493 kts | 15° |
| 2026-05-06 08:53 | 49.63512 | 12.67844 | 33819 ft | 495 kts | 15° |
| 2026-05-06 08:54 | 49.70048 | 12.71237 | 33819 ft | 497 kts | 15° |
| 2026-05-06 08:54 | 49.76588 | 12.74635 | 33779 ft | 499 kts | 15° |
| 2026-05-06 08:55 | 49.83206 | 12.78084 | 33816 ft | 500 kts | 15° |
| 2026-05-06 08:55 | 49.89776 | 12.81518 | 33814 ft | 502 kts | 15° |
| 2026-05-06 08:56 | 49.96407 | 12.84994 | 33832 ft | 503 kts | 15° |
| 2026-05-06 08:56 | 50.03072 | 12.88501 | 33821 ft | 503 kts | 15° |
| 2026-05-06 08:57 | 50.09678 | 12.91986 | 33830 ft | 501 kts | 15° |
| 2026-05-06 08:57 | 50.16226 | 12.95449 | 33837 ft | 500 kts | 15° |
| 2026-05-06 08:58 | 50.22810 | 12.98943 | 33821 ft | 497 kts | 15° |
| 2026-05-06 08:58 | 50.29338 | 13.02416 | 33817 ft | 495 kts | 15° |
| 2026-05-06 08:59 | 50.35848 | 13.05890 | 33810 ft | 493 kts | 15° |
| 2026-05-06 08:59 | 50.41260 | 13.08785 | 33816 ft | 491 kts | 15° |
| 2026-05-06 09:00 | 50.47704 | 13.12241 | 33797 ft | 491 kts | 15° |
| 2026-05-06 09:00 | 50.54074 | 13.16260 | 33814 ft | 494 kts | 23° |
| 2026-05-06 09:01 | 50.60152 | 13.21260 | 33814 ft | 496 kts | 25° |
| 2026-05-06 09:01 | 50.66266 | 13.26362 | 33800 ft | 496 kts | 25° |
| 2026-05-06 09:02 | 50.72373 | 13.31336 | 33794 ft | 496 kts | 24° |
| 2026-05-06 09:02 | 50.78559 | 13.36335 | 33784 ft | 497 kts | 24° |
| 2026-05-06 09:03 | 50.84706 | 13.41325 | 33797 ft | 496 kts | 25° |
| 2026-05-06 09:03 | 50.90813 | 13.46296 | 33781 ft | 495 kts | 23° |
| 2026-05-06 09:04 | 50.97265 | 13.49748 | 33779 ft | 485 kts | 5° |
| 2026-05-06 09:04 | 51.03945 | 13.51344 | 33789 ft | 483 kts | 5° |
| 2026-05-06 09:05 | 51.10580 | 13.53061 | 33778 ft | 483 kts | 6° |
| 2026-05-06 09:05 | 51.17165 | 13.54866 | 33777 ft | 482 kts | 6° |
| 2026-05-06 09:06 | 51.23784 | 13.56678 | 33773 ft | 481 kts | 6° |
| 2026-05-06 09:06 | 51.30388 | 13.58484 | 33782 ft | 481 kts | 6° |
| 2026-05-06 09:07 | 51.36985 | 13.60292 | 33781 ft | 480 kts | 6° |
| 2026-05-06 09:07 | 51.43562 | 13.62100 | 33716 ft | 480 kts | 6° |
| 2026-05-06 09:07 | 51.46894 | 13.63013 | 32298 ft | 499 kts | 6° |
| 2026-05-06 09:08 | 51.50353 | 13.63957 | 31386 ft | 501 kts | 7° |
| 2026-05-06 09:08 | 51.53731 | 13.64885 | 31001 ft | 491 kts | 7° |
| 2026-05-06 09:08 | 51.57075 | 13.65816 | 30614 ft | 483 kts | 8° |
| 2026-05-06 09:08 | 51.60337 | 13.66883 | 30187 ft | 477 kts | 9° |
| 2026-05-06 09:09 | 51.63531 | 13.68056 | 29645 ft | 473 kts | 10° |
| 2026-05-06 09:09 | 51.66764 | 13.69288 | 28807 ft | 473 kts | 11° |
| 2026-05-06 09:09 | 51.69946 | 13.70499 | 27839 ft | 476 kts | 10° |
| 2026-05-06 09:09 | 51.73199 | 13.71719 | 26890 ft | 479 kts | 11° |
| 2026-05-06 09:10 | 51.76434 | 13.72918 | 26261 ft | 474 kts | 10° |
| 2026-05-06 09:10 | 51.79611 | 13.74088 | 25682 ft | 468 kts | 10° |
| 2026-05-06 09:10 | 51.82788 | 13.75255 | 25054 ft | 464 kts | 10° |
| 2026-05-06 09:10 | 51.85914 | 13.76404 | 24413 ft | 462 kts | 10° |
| 2026-05-06 09:11 | 51.89025 | 13.77550 | 23793 ft | 460 kts | 9° |
| 2026-05-06 09:11 | 51.92201 | 13.78069 | 23106 ft | 451 kts | 352° |
| 2026-05-06 09:11 | 51.95191 | 13.77099 | 22557 ft | 436 kts | 336° |
| 2026-05-06 09:11 | 51.97959 | 13.75205 | 22074 ft | 426 kts | 332° |
| 2026-05-06 09:12 | 52.00628 | 13.73269 | 21492 ft | 422 kts | 332° |
| 2026-05-06 09:12 | 52.03331 | 13.71365 | 20849 ft | 420 kts | 332° |
| 2026-05-06 09:12 | 52.05848 | 13.69053 | 20242 ft | 408 kts | 315° |
| 2026-05-06 09:12 | 52.07849 | 13.65988 | 20122 ft | 390 kts | 310° |
| 2026-05-06 09:13 | 52.09393 | 13.62531 | 20010 ft | 367 kts | 292° |
| 2026-05-06 09:13 | 52.10200 | 13.58757 | 19930 ft | 348 kts | 278° |
| 2026-05-06 09:13 | 52.10531 | 13.54949 | 19874 ft | 333 kts | 273° |
| 2026-05-06 09:13 | 52.10777 | 13.51247 | 19802 ft | 322 kts | 273° |
| 2026-05-06 09:14 | 52.11014 | 13.47718 | 19730 ft | 311 kts | 273° |
| 2026-05-06 09:14 | 52.11262 | 13.44262 | 19655 ft | 301 kts | 274° |
| 2026-05-06 09:14 | 52.11508 | 13.40935 | 19468 ft | 295 kts | 274° |
| 2026-05-06 09:14 | 52.11753 | 13.37642 | 19134 ft | 294 kts | 274° |
| 2026-05-06 09:15 | 52.12261 | 13.34425 | 18956 ft | 291 kts | 291° |
| 2026-05-06 09:15 | 52.13309 | 13.31673 | 18901 ft | 285 kts | 302° |
| 2026-05-06 09:15 | 52.14510 | 13.29126 | 18738 ft | 279 kts | 303° |
| 2026-05-06 09:15 | 52.15688 | 13.26656 | 18448 ft | 278 kts | 302° |
| 2026-05-06 09:16 | 52.16857 | 13.24167 | 18142 ft | 277 kts | 302° |
| 2026-05-06 09:16 | 52.17982 | 13.21611 | 17822 ft | 272 kts | 292° |
| 2026-05-06 09:16 | 52.18431 | 13.18722 | 17468 ft | 262 kts | 267° |
| 2026-05-06 09:16 | 52.18207 | 13.15835 | 17157 ft | 258 kts | 252° |
| 2026-05-06 09:17 | 52.17591 | 13.13071 | 16844 ft | 257 kts | 248° |
| 2026-05-06 09:17 | 52.16924 | 13.10404 | 16526 ft | 256 kts | 248° |
| 2026-05-06 09:17 | 52.16242 | 13.07723 | 16211 ft | 255 kts | 248° |
| 2026-05-06 09:17 | 52.15577 | 13.05057 | 15910 ft | 254 kts | 248° |
| 2026-05-06 09:18 | 52.14926 | 13.02408 | 15616 ft | 252 kts | 249° |
| 2026-05-06 09:18 | 52.14272 | 12.99735 | 15333 ft | 251 kts | 249° |
| 2026-05-06 09:18 | 52.13630 | 12.97103 | 15045 ft | 250 kts | 249° |
| 2026-05-06 09:18 | 52.12996 | 12.94506 | 14762 ft | 249 kts | 249° |
| 2026-05-06 09:19 | 52.12354 | 12.91879 | 14484 ft | 248 kts | 249° |
| 2026-05-06 09:19 | 52.11720 | 12.89286 | 14210 ft | 247 kts | 249° |
| 2026-05-06 09:19 | 52.11089 | 12.86704 | 13953 ft | 246 kts | 249° |
| 2026-05-06 09:19 | 52.10452 | 12.84103 | 13594 ft | 249 kts | 249° |
| 2026-05-06 09:20 | 52.09809 | 12.81482 | 13334 ft | 246 kts | 249° |
| 2026-05-06 09:20 | 52.09175 | 12.78899 | 13054 ft | 244 kts | 249° |
| 2026-05-06 09:20 | 52.08551 | 12.76361 | 12770 ft | 244 kts | 249° |
| 2026-05-06 09:20 | 52.07966 | 12.73752 | 12490 ft | 243 kts | 259° |
| 2026-05-06 09:21 | 52.08050 | 12.71041 | 12195 ft | 245 kts | 286° |
| 2026-05-06 09:21 | 52.08867 | 12.68624 | 11939 ft | 248 kts | 307° |
| 2026-05-06 09:21 | 52.10231 | 12.66861 | 11670 ft | 256 kts | 329° |
| 2026-05-06 09:21 | 52.11915 | 12.65848 | 11439 ft | 262 kts | 347° |
| 2026-05-06 09:22 | 52.13737 | 12.66130 | 11151 ft | 272 kts | 18° |
| 2026-05-06 09:22 | 52.15283 | 12.67898 | 10883 ft | 279 kts | 50° |
| 2026-05-06 09:22 | 52.16206 | 12.70684 | 10625 ft | 279 kts | 67° |
| 2026-05-06 09:22 | 52.16910 | 12.73591 | 10357 ft | 278 kts | 69° |
| 2026-05-06 09:23 | 52.17597 | 12.76531 | 10084 ft | 278 kts | 68° |
| 2026-05-06 09:23 | 52.18299 | 12.79473 | 9832 ft | 276 kts | 68° |
| 2026-05-06 09:23 | 52.18998 | 12.82362 | 9578 ft | 275 kts | 68° |
| 2026-05-06 09:23 | 52.19707 | 12.85277 | 9323 ft | 273 kts | 68° |
| 2026-05-06 09:24 | 52.20399 | 12.88118 | 9070 ft | 270 kts | 68° |
| 2026-05-06 09:24 | 52.21084 | 12.90927 | 8914 ft | 263 kts | 68° |
| 2026-05-06 09:24 | 52.21744 | 12.93639 | 8842 ft | 249 kts | 67° |
| 2026-05-06 09:24 | 52.22370 | 12.96213 | 8689 ft | 238 kts | 67° |
| 2026-05-06 09:25 | 52.22966 | 12.98665 | 8434 ft | 233 kts | 67° |
| 2026-05-06 09:25 | 52.23558 | 13.01102 | 8111 ft | 231 kts | 66° |
| 2026-05-06 09:25 | 52.24143 | 13.03514 | 7871 ft | 224 kts | 66° |
| 2026-05-06 09:25 | 52.24700 | 13.05813 | 7798 ft | 210 kts | 66° |
| 2026-05-06 09:26 | 52.25224 | 13.07980 | 7536 ft | 205 kts | 66° |
| 2026-05-06 09:26 | 52.25748 | 13.10144 | 7253 ft | 200 kts | 66° |
| 2026-05-06 09:26 | 52.26237 | 13.12173 | 7069 ft | 189 kts | 66° |
| 2026-05-06 09:26 | 52.26717 | 13.14157 | 6676 ft | 188 kts | 66° |
| 2026-05-06 09:27 | 52.27195 | 13.16140 | 6313 ft | 184 kts | 66° |
| 2026-05-06 09:27 | 52.27644 | 13.18012 | 6121 ft | 171 kts | 65° |
| 2026-05-06 09:27 | 52.28083 | 13.19840 | 5687 ft | 174 kts | 64° |
| 2026-05-06 09:27 | 52.28524 | 13.21639 | 5367 ft | 169 kts | 63° |
| 2026-05-06 09:28 | 52.28991 | 13.23393 | 4947 ft | 172 kts | 63° |
| 2026-05-06 09:28 | 52.29437 | 13.25185 | 4605 ft | 169 kts | 65° |
| 2026-05-06 09:28 | 52.29866 | 13.26982 | 4248 ft | 168 kts | 65° |
| 2026-05-06 09:28 | 52.30280 | 13.28746 | 3925 ft | 166 kts | 63° |
| 2026-05-06 09:29 | 52.30693 | 13.30493 | 3588 ft | 163 kts | 63° |
| 2026-05-06 09:29 | 52.31111 | 13.32180 | 3256 ft | 159 kts | 66° |
| 2026-05-06 09:29 | 52.31495 | 13.33881 | 3027 ft | 163 kts | 68° |
| 2026-05-06 09:29 | 52.31897 | 13.35616 | 3024 ft | 164 kts | 67° |
| 2026-05-06 09:30 | 52.32298 | 13.37323 | 3003 ft | 159 kts | 66° |
| 2026-05-06 09:30 | 52.32695 | 13.38991 | 2991 ft | 154 kts | 67° |
| 2026-05-06 09:30 | 52.33075 | 13.40628 | 2859 ft | 154 kts | 66° |
| 2026-05-06 09:30 | 52.33449 | 13.42202 | 2565 ft | 145 kts | 66° |
| 2026-05-06 09:31 | 52.33815 | 13.43752 | 2118 ft | 149 kts | 66° |
| 2026-05-06 09:31 | 52.34187 | 13.45335 | 1541 ft | 150 kts | 66° |
| 2026-05-06 09:31 | 52.34637 | 13.47227 | 173 ft | 196 kts | 66° |
| 2026-05-06 09:31 | 52.35114 | 13.49092 | 153 ft | 153 kts | 71° |
| 2026-05-06 09:32 | 52.35365 | 13.50281 | 153 ft | 51 kts | 69° |
| 2026-05-06 09:32 | 52.35480 | 13.50542 | 153 ft | 24 kts | 42° |
| 2026-05-06 09:32 | 52.35492 | 13.50560 | 153 ft | 0 kts | 42° |
| 2026-05-06 09:33 | 52.35507 | 13.50583 | 153 ft | 7 kts | 43° |
| 2026-05-06 09:33 | 52.35563 | 13.50665 | 153 ft | 14 kts | 40° |
| 2026-05-06 09:33 | 52.35640 | 13.50764 | 153 ft | 14 kts | 37° |
| 2026-05-06 09:33 | 52.35725 | 13.50828 | 153 ft | 13 kts | 9° |
| 2026-05-06 09:34 | 52.35814 | 13.50801 | 153 ft | 13 kts | 341° |
| 2026-05-06 09:34 | 52.35895 | 13.50742 | 153 ft | 13 kts | 338° |
| 2026-05-06 09:34 | 52.35944 | 13.50710 | 153 ft | 6 kts | 341° |
| 2026-05-06 09:34 | 52.35990 | 13.50687 | 153 ft | 8 kts | 340° |
| 2026-05-06 09:35 | 52.36052 | 13.50648 | 153 ft | 11 kts | 339° |
| 2026-05-06 09:35 | 52.36130 | 13.50599 | 154 ft | 13 kts | 338° |
| 2026-05-06 09:35 | 52.36186 | 13.50605 | 154 ft | 9 kts | 50° |
| 2026-05-06 09:35 | 52.36208 | 13.50692 | 154 ft | 6 kts | 69° |
| 2026-05-06 09:36 | 52.36209 | 13.50700 | 154 ft | 0 kts | 68° |
| 2026-05-06 09:36 | 52.36211 | 13.50704 | 154 ft | 0 kts | 67° |
| 2026-05-06 09:37 | 52.36209 | 13.50696 | 154 ft | 0 kts | 69° |